Terminal Aerodrome Forecast
Issued by NWS Paducah, KY

Home | Current Version | Previous Version | Text Only | Print | Product List | Glossary Off
Versions: 1 2 3 4 5 6 7 8 9 10 11 12 13 14 15 16 17

000
FTUS43 KPAH 260541
TAFPAH
TAF
KPAH 260541Z 2606/2706 24015G21KT 4SM -TSRA SCT015CB OVC040
     FM260630 01010KT 4SM -RA BR VCTS OVC050CB
      TEMPO 2607/2609 VRB17G30KT 2SM +TSRA BR SCT015CB
     FM260900 36012G19KT 3SM -RA BR BKN015
     FM261300 35013G19KT 5SM -SHRA BR BKN015
     FM262000 35009KT P6SM SCT250=

USA.gov is the U.S. government's official web portal to all federal, state and local government web resources and services.